Vreme - Novo mesto - 190m - DAVIS Vantage Pro2
Weather data: current torek, 19.02.2019 19:10
Date Time Temp. O. Hum. O. Baro. Rain Wind Direction Direction Wind gust
19.02.2019 19:10 9.7 C 50 % 1021.5 hPa 0.0 mm 1.6 km/h W 270 6.4 km/h
19.02.2019 18:10 11.8 C 42 % 1020.8 hPa 0.0 mm 3.2 km/h W 270 6.4 km/h
19.02.2019 17:10 15.0 C 36 % 1020.3 hPa 0.0 mm 4.8 km/h W-SW 245 11.3 km/h
19.02.2019 16:10 16.8 C 34 % 1020.1 hPa 0.0 mm 4.8 km/h W-SW 245 14.5 km/h
19.02.2019 15:10 17.0 C 33 % 1020.0 hPa 0.0 mm 6.4 km/h W 270 20.9 km/h
19.02.2019 14:10 16.9 C 35 % 1020.1 hPa 0.0 mm 6.4 km/h W 270 16.1 km/h
19.02.2019 13:10 16.3 C 35 % 1020.6 hPa 0.0 mm 9.7 km/h W 270 20.9 km/h
19.02.2019 12:10 14.7 C 43 % 1021.3 hPa 0.0 mm 6.4 km/h SW 225 12.9 km/h
19.02.2019 11:10 10.6 C 57 % 1022.0 hPa 0.0 mm 6.4 km/h SW 225 12.9 km/h
19.02.2019 10:10 6.1 C 73 % 1022.2 hPa 0.0 mm 4.8 km/h SW 225 8.0 km/h
19.02.2019 09:10 1.8 C 86 % 1022.2 hPa 0.0 mm 4.8 km/h SW 225 6.4 km/h
19.02.2019 08:10 -0.8 C 93 % 1022.2 hPa 0.0 mm 0.0 km/h W 270 1.6 km/h
19.02.2019 07:10 -1.6 C 93 % 1021.8 hPa 0.0 mm 0.0 km/h W-SW 245 4.8 km/h
19.02.2019 06:10 -1.8 C 92 % 1021.6 hPa 0.0 mm 0.0 km/h W 270 3.2 km/h
19.02.2019 05:10 -1.4 C 93 % 1021.6 hPa 0.0 mm 1.6 km/h SW 225 6.4 km/h
19.02.2019 04:10 -1.5 C 92 % 1021.5 hPa 0.0 mm 1.6 km/h SW 225 4.8 km/h
19.02.2019 03:10 -0.9 C 91 % 1021.8 hPa 0.0 mm 1.6 km/h W 270 4.8 km/h
19.02.2019 02:10 -0.3 C 90 % 1022.1 hPa 0.0 mm 0.0 km/h W 270 1.6 km/h
19.02.2019 01:10 0.3 C 90 % 1022.3 hPa 0.0 mm 1.6 km/h SW 225 4.8 km/h
19.02.2019 00:10 0.7 C 89 % 1022.6 hPa 0.0 mm 1.6 km/h W-SW 245 8.0 km/h
18.02.2019 23:10 1.5 C 87 % 1022.7 hPa 0.0 mm 1.6 km/h W 270 4.8 km/h
18.02.2019 22:10 2.6 C 84 % 1022.8 hPa 0.0 mm 1.6 km/h W 270 3.2 km/h
18.02.2019 21:10 3.7 C 81 % 1022.9 hPa 0.0 mm 0.0 km/h W-NW 290 1.6 km/h
18.02.2019 20:10 5.0 C 78 % 1022.8 hPa 0.0 mm 0.0 km/h N-NE 20 1.6 km/h
18.02.2019 20:00 5.4 C 76 % 1022.8 hPa 0.0 mm 0.0 km/h N-NE 20 1.6 km/h
_ Min-Time 06:40 14:30 14:30 - 20:00 - - 21:50
Minimum _ -2.1 C 31 % 1020.0 hPa - 0.0 km/h - - 0.0 km/h
_ Max-Time 14:40 04:30 20:20 20:00 12:50 - - 14:40
Maximum _ 17.1 C 93 % 1022.9 hPa 0.0 mm 9.7 km/h
SW
- - 27.4 km/h
NW
Average _ 5.9 C 70 % 1021.7 hPa #0.0 mm 3.2 km/h W - 8.1 km/h